Time;durP1;ratioP1;P1;durP2;ratioP2;P2;SDS_P1;SDS_P2;PMS_P1;PMS_P2;Temp;Humidity;BMP_temperature;BMP_pressure;BME280_temperature;BME280_humidity;BME280_pressure;Samples;Min_cycle;Max_cycle;Signal;HPM_P1;HPM_P2
2022/03/28 00:00:39;;;;;;;26.30;11.13;;;;;;;7.94;68.38;102673.97;5016329;28;20485;-63
2022/03/28 00:03:05;;;;;;;23.83;9.70;;;;;;;7.94;68.46;102672.16;5017689;28;20025;-63
2022/03/28 00:05:32;;;;;;;23.52;10.25;;;;;;;7.94;68.43;102677.44;5024898;28;20033;-63
2022/03/28 00:07:57;;;;;;;26.95;11.10;;;;;;;7.89;68.72;102676.94;5011424;28;20100;-64
2022/03/28 00:10:23;;;;;;;23.90;10.88;;;;;;;7.90;68.79;102659.25;5018075;28;20112;-64
2022/03/28 00:12:49;;;;;;;22.73;10.10;;;;;;;7.85;69.29;102666.69;5023557;28;20179;-64
2022/03/28 00:15:14;;;;;;;24.17;10.02;;;;;;;7.86;69.63;102671.84;5012427;28;20240;-63
2022/03/28 00:17:39;;;;;;;19.50;10.40;;;;;;;7.79;69.47;102665.28;5026519;28;20065;-64
2022/03/28 00:20:06;;;;;;;23.95;10.45;;;;;;;7.79;69.60;102657.34;5018833;28;20060;-63
2022/03/28 00:22:32;;;;;;;25.10;10.25;;;;;;;7.73;69.66;102656.00;5010539;28;20021;-64
2022/03/28 00:24:57;;;;;;;24.65;11.15;;;;;;;7.71;69.71;102649.13;5025320;28;20017;-63
2022/03/28 00:27:22;;;;;;;29.20;11.18;;;;;;;7.73;69.88;102648.06;5020028;28;20028;-63
2022/03/28 00:29:48;;;;;;;24.17;11.35;;;;;;;7.74;69.76;102647.09;5021232;28;20033;-63
2022/03/28 00:32:13;;;;;;;26.17;11.73;;;;;;;7.66;69.75;102641.50;5020473;28;20040;-63
2022/03/28 00:34:40;;;;;;;25.83;11.27;;;;;;;7.60;69.82;102628.72;5019649;28;20366;-63
2022/03/28 00:37:06;;;;;;;24.48;11.27;;;;;;;7.51;69.68;102621.41;5023529;28;20022;-64
2022/03/28 00:39:31;;;;;;;27.30;10.75;;;;;;;7.49;69.65;102625.13;5017367;28;20028;-63
2022/03/28 00:41:57;;;;;;;29.27;11.45;;;;;;;7.48;69.80;102624.28;5018511;28;20030;-63
2022/03/28 00:44:22;;;;;;;29.08;11.77;;;;;;;7.44;69.57;102620.16;5023609;28;20600;-63
2022/03/28 00:46:48;;;;;;;26.25;11.00;;;;;;;7.41;69.88;102620.38;5023556;28;20041;-63
2022/03/28 00:49:15;;;;;;;27.05;11.23;;;;;;;7.34;69.93;102616.47;5014408;28;20030;-63
2022/03/28 00:51:40;;;;;;;27.48;11.30;;;;;;;7.28;70.18;102623.03;5017394;28;20531;-63
2022/03/28 00:54:06;;;;;;;30.30;11.25;;;;;;;7.22;70.49;102622.59;5014513;28;20026;-63
2022/03/28 00:56:32;;;;;;;28.15;11.48;;;;;;;7.22;70.36;102622.59;5012230;28;20405;-63
2022/03/28 00:58:58;;;;;;;29.52;11.10;;;;;;;7.18;70.37;102615.81;5022593;28;20041;-63
2022/03/28 01:01:24;;;;;;;28.60;11.38;;;;;;;7.12;70.94;102611.81;5018140;28;20483;-63
2022/03/28 01:03:50;;;;;;;26.90;10.88;;;;;;;7.10;70.91;102609.28;5025412;28;20021;-63
2022/03/28 01:06:16;;;;;;;24.80;10.77;;;;;;;7.09;70.92;102607.59;5019436;28;20389;-63
2022/03/28 01:08:41;;;;;;;24.58;10.65;;;;;;;7.07;71.17;102598.91;5022323;28;20039;-63
2022/03/28 01:11:09;;;;;;;24.75;10.27;;;;;;;7.11;71.15;102600.41;5025726;28;20393;-63
2022/03/28 01:13:36;;;;;;;28.50;10.85;;;;;;;7.09;71.06;102604.94;5025183;28;20540;-63
2022/03/28 01:16:02;;;;;;;21.25;9.55;;;;;;;7.03;71.06;102599.22;5016799;28;20068;-63
2022/03/28 01:18:28;;;;;;;24.97;9.97;;;;;;;6.92;70.80;102594.66;5015746;28;20029;-63
2022/03/28 01:20:56;;;;;;;27.23;9.77;;;;;;;6.87;71.21;102594.13;5026410;28;20400;-63
2022/03/28 01:23:21;;;;;;;22.07;9.70;;;;;;;6.86;71.45;102591.59;5025671;28;20507;-63
2022/03/28 01:25:51;;;;;;;25.77;10.13;;;;;;;6.86;71.61;102581.88;5027026;28;20022;-63
2022/03/28 01:28:16;;;;;;;;;;;;;;;7.04;71.28;102585.91;5027707;28;20294;-64
2022/03/28 01:30:41;;;;;;;27.27;10.20;;;;;;;6.94;71.28;102581.34;5030188;28;19913;-63
2022/03/28 01:33:07;;;;;;;28.27;9.97;;;;;;;6.97;71.38;102576.72;5018421;28;20053;-63
2022/03/28 01:35:34;;;;;;;28.17;10.00;;;;;;;6.99;71.52;102584.56;5018436;28;20109;-63
2022/03/28 01:38:02;;;;;;;25.57;9.77;;;;;;;6.91;71.54;102582.41;5025724;28;20033;-63
2022/03/28 01:40:28;;;;;;;22.60;9.27;;;;;;;6.86;71.82;102579.22;5014472;28;20108;-63
2022/03/28 01:42:53;;;;;;;18.67;8.10;;;;;;;6.88;71.76;102569.41;5022792;28;20036;-63
2022/03/28 01:45:19;;;;;;;17.57;7.73;;;;;;;6.84;71.90;102563.50;5027431;28;20022;-63
2022/03/28 01:47:46;;;;;;;19.80;8.50;;;;;;;6.71;71.72;102561.81;5016118;28;20513;-63
2022/03/28 01:50:11;;;;;;;18.13;7.93;;;;;;;6.67;71.98;102570.88;5029256;28;20025;-63
2022/03/28 01:52:37;;;;;;;22.07;8.27;;;;;;;6.67;72.25;102555.88;5028590;28;20076;-63
2022/03/28 01:55:02;;;;;;;24.20;8.80;;;;;;;6.68;72.33;102567.28;5017430;28;20037;-63
2022/03/28 01:57:28;;;;;;;22.50;8.83;;;;;;;6.62;72.53;102565.88;5023290;28;20052;-63
2022/03/28 01:59:53;;;;;;;24.33;9.03;;;;;;;6.61;72.55;102563.34;5024552;28;20114;-63
2022/03/28 02:02:18;;;;;;;20.97;8.33;;;;;;;6.61;72.47;102560.72;5029664;28;20025;-63
2022/03/28 02:04:44;;;;;;;25.50;9.10;;;;;;;6.57;72.86;102562.72;5028226;28;20021;-63
2022/03/28 02:07:09;;;;;;;21.83;9.67;;;;;;;6.53;72.93;102556.78;5029182;28;20049;-63
2022/03/28 02:09:34;;;;;;;26.13;9.13;;;;;;;6.46;72.92;102563.44;5019432;28;20037;-63
2022/03/28 02:11:59;;;;;;;24.83;8.70;;;;;;;6.42;72.98;102556.66;5028404;28;20029;-63
2022/03/28 02:14:25;;;;;;;24.60;8.33;;;;;;;6.34;73.08;102544.91;5021359;28;20030;-63
2022/03/28 02:16:50;;;;;;;21.23;8.10;;;;;;;6.33;73.15;102556.41;5025486;28;20493;-63
2022/03/28 02:19:15;;;;;;;23.93;8.00;;;;;;;6.28;73.48;102551.44;5028164;28;20037;-63
2022/03/28 02:21:41;;;;;;;19.27;7.63;;;;;;;6.22;73.42;102554.50;5027139;28;20041;-63
2022/03/28 02:24:06;;;;;;;23.60;7.47;;;;;;;6.26;73.56;102542.78;5021155;28;20029;-63
2022/03/28 02:26:32;;;;;;;20.43;8.07;;;;;;;6.34;73.37;102544.91;5028853;28;20036;-63
2022/03/28 02:28:57;;;;;;;20.73;8.17;;;;;;;6.34;73.65;102544.91;5024905;28;20034;-63
2022/03/28 02:31:22;;;;;;;24.03;8.50;;;;;;;6.34;73.76;102544.91;5028039;28;20462;-64
2022/03/28 02:33:47;;;;;;;20.77;8.57;;;;;;;6.27;73.69;102536.56;5020448;28;20037;-63
2022/03/28 02:36:13;;;;;;;21.17;7.57;;;;;;;6.22;73.63;102541.28;5027906;28;20820;-63
2022/03/28 02:38:38;;;;;;;25.67;8.60;;;;;;;6.21;73.75;102542.25;5021645;28;20109;-63
2022/03/28 02:41:03;;;;;;;27.27;7.90;;;;;;;6.16;73.74;102532.00;5028164;28;20040;-63
2022/03/28 02:43:29;;;;;;;22.07;7.90;;;;;;;6.12;73.78;102532.31;5028407;28;20447;-63
2022/03/28 02:45:54;;;;;;;24.33;9.17;;;;;;;6.11;73.94;102522.69;5023204;28;20036;-63
2022/03/28 02:48:20;;;;;;;24.77;8.97;;;;;;;6.21;74.11;102518.50;5018108;28;20258;-63
2022/03/28 02:50:45;;;;;;;21.70;8.50;;;;;;;6.17;74.12;102528.41;5014345;28;20525;-63
2022/03/28 02:53:11;;;;;;;24.87;7.90;;;;;;;6.14;74.12;102519.84;5022771;28;20037;-63
2022/03/28 02:55:38;;;;;;;24.30;8.30;;;;;;;6.15;74.14;102511.84;5025686;28;20481;-63
2022/03/28 02:58:03;;;;;;;25.80;8.77;;;;;;;6.16;73.95;102502.13;5022428;28;21623;-63
2022/03/28 03:00:29;;;;;;;15.37;7.37;;;;;;;6.13;73.80;102499.72;5027328;28;20033;-63
2022/03/28 03:02:54;;;;;;;18.57;7.13;;;;;;;6.13;73.49;102507.63;5025001;28;20036;-63
2022/03/28 03:05:19;;;;;;;20.53;7.40;;;;;;;6.08;73.50;102501.81;5016734;28;20124;-63
2022/03/28 03:07:48;;;;;;;22.37;7.87;;;;;;;6.05;73.73;102494.06;5022672;28;20025;-63
2022/03/28 03:10:14;;;;;;;22.92;8.00;;;;;;;6.11;73.96;102496.31;5027888;28;20025;-63
2022/03/28 03:12:39;;;;;;;27.67;8.43;;;;;;;6.17;73.91;102490.63;5020990;28;20040;-63
2022/03/28 03:15:05;;;;;;;26.50;7.70;;;;;;;6.12;73.83;102495.38;5020090;28;20124;-63
2022/03/28 03:17:30;;;;;;;23.63;8.20;;;;;;;6.10;74.29;102495.47;5025361;28;20040;-63
2022/03/28 03:19:55;;;;;;;22.93;8.53;;;;;;;6.03;74.34;102490.69;5027251;28;20034;-63
2022/03/28 03:22:21;;;;;;;21.53;7.83;;;;;;;6.08;74.36;102491.25;5024079;28;20041;-63
2022/03/28 03:24:46;;;;;;;26.13;8.17;;;;;;;6.10;74.30;102486.72;5027121;28;20040;-63
2022/03/28 03:27:13;;;;;;;25.00;8.70;;;;;;;6.07;74.38;102494.81;5017384;28;20334;-63
2022/03/28 03:29:38;;;;;;;29.50;8.63;;;;;;;5.98;74.50;102491.00;5027698;28;20079;-63
2022/03/28 03:32:04;;;;;;;25.63;8.77;;;;;;;6.01;74.30;102489.94;5026093;28;20018;-63
2022/03/28 03:34:30;;;;;;;27.30;8.40;;;;;;;6.04;74.54;102484.47;5024628;28;20048;-63
2022/03/28 03:36:56;;;;;;;27.73;8.30;;;;;;;6.09;74.35;102471.84;5023675;28;20710;-63
2022/03/28 03:39:22;;;;;;;23.40;9.20;;;;;;;5.97;74.03;102483.19;5026053;28;20025;-63
2022/03/28 03:41:48;;;;;;;30.60;8.40;;;;;;;5.89;74.29;102470.47;5020115;28;20068;-63
2022/03/28 03:44:13;;;;;;;25.40;8.77;;;;;;;5.89;74.27;102476.63;5014955;28;20481;-63
2022/03/28 03:46:39;;;;;;;28.63;8.47;;;;;;;5.87;74.42;102478.47;5019366;28;20587;-63
2022/03/28 03:49:04;;;;;;;30.73;8.33;;;;;;;5.81;74.75;102472.78;5011079;28;20033;-63
2022/03/28 03:51:29;;;;;;;28.77;8.77;;;;;;;5.83;74.81;102469.09;5024813;28;20029;-63
2022/03/28 03:53:55;;;;;;;32.17;9.03;;;;;;;5.86;74.79;102473.31;5010135;28;20018;-63
2022/03/28 03:56:20;;;;;;;23.23;8.00;;;;;;;5.86;74.92;102462.78;5020472;28;20163;-63
2022/03/28 03:58:46;;;;;;;28.93;8.30;;;;;;;5.81;74.69;102473.63;5013399;28;20144;-63
2022/03/28 04:01:11;;;;;;;24.40;8.50;;;;;;;5.83;74.52;102461.19;5027203;28;20466;-63
2022/03/28 04:03:37;;;;;;;26.40;7.90;;;;;;;5.84;74.63;102454.97;5015277;28;20104;-63
2022/03/28 04:06:03;;;;;;;26.17;8.37;;;;;;;5.90;74.60;102457.22;5023861;28;20546;-63
2022/03/28 04:08:28;;;;;;;25.00;8.13;;;;;;;5.90;74.55;102454.59;5023497;28;20025;-63
2022/03/28 04:10:54;;;;;;;21.93;8.37;;;;;;;5.90;74.64;102445.84;5028203;28;20017;-62
2022/03/28 04:13:20;;;;;;;29.37;8.27;;;;;;;5.94;74.94;102443.84;5022447;28;20404;-63
2022/03/28 04:15:46;;;;;;;29.37;9.30;;;;;;;5.89;74.69;102437.06;5023660;28;20018;-63
2022/03/28 04:18:11;;;;;;;26.40;7.87;;;;;;;5.87;74.73;102441.56;5024245;28;20104;-63
2022/03/28 04:20:36;;;;;;;29.10;8.57;;;;;;;5.79;74.91;102437.75;5027572;28;20053;-63
2022/03/28 04:23:02;;;;;;;33.70;8.73;;;;;;;5.72;75.03;102439.94;5028857;28;20113;-63
2022/03/28 04:25:27;;;;;;;23.17;7.73;;;;;;;5.73;75.22;102438.97;5032733;28;20033;-63
2022/03/28 04:27:53;;;;;;;23.83;7.60;;;;;;;5.69;75.75;102442.75;5027551;28;20033;-63
2022/03/28 04:30:18;;;;;;;24.20;7.80;;;;;;;5.66;75.18;102442.97;5025943;28;20025;-63
2022/03/28 04:32:43;;;;;;;24.30;7.43;;;;;;;5.69;75.26;102439.28;5026039;28;20037;-63
2022/03/28 04:35:10;;;;;;;19.47;6.67;;;;;;;5.70;75.16;102436.53;5027312;28;20032;-63
2022/03/28 04:37:38;;;;;;;21.23;6.77;;;;;;;5.61;75.26;102439.78;5026003;28;20028;-63
2022/03/28 04:40:06;;;;;;;20.83;6.90;;;;;;;5.65;75.28;102441.28;5026294;28;20056;-63
2022/03/28 04:42:32;;;;;;;26.80;7.30;;;;;;;5.62;75.25;102432.72;5026778;28;20026;-63
2022/03/28 04:44:58;;;;;;;26.57;7.10;;;;;;;5.62;75.42;102436.22;5026963;28;20021;-63
2022/03/28 04:47:23;;;;;;;30.17;7.87;;;;;;;5.59;75.59;102439.03;5027262;28;20033;-63
2022/03/28 04:49:48;;;;;;;28.63;7.80;;;;;;;5.47;75.52;102445.94;5025999;28;20030;-63
2022/03/28 04:52:14;;;;;;;26.73;6.67;;;;;;;5.38;75.66;102448.31;5027481;28;20470;-63
2022/03/28 04:54:39;;;;;;;19.03;6.47;;;;;;;5.31;75.67;102457.56;5023959;28;20033;-63
2022/03/28 04:57:05;;;;;;;10.33;4.30;;;;;;;5.13;75.82;102456.91;5019030;28;20029;-63
2022/03/28 04:59:31;;;;;;;13.23;4.13;;;;;;;5.04;75.72;102449.59;5022509;28;20026;-63
2022/03/28 05:01:57;;;;;;;18.23;5.77;;;;;;;5.11;75.97;102453.53;5030435;28;20030;-63
2022/03/28 05:04:22;;;;;;;22.33;6.33;;;;;;;5.13;76.19;102447.22;5029834;28;20094;-63
2022/03/28 05:06:47;;;;;;;23.53;6.50;;;;;;;5.20;76.47;102447.66;5031197;28;20560;-63
2022/03/28 05:09:12;;;;;;;23.00;6.50;;;;;;;5.20;76.27;102448.56;5024067;28;20059;-63
2022/03/28 05:11:38;;;;;;;27.90;7.17;;;;;;;5.20;76.46;102440.66;5031121;28;20373;-63
2022/03/28 05:14:03;;;;;;;24.43;7.20;;;;;;;5.18;76.37;102439.88;5027913;28;20044;-63
2022/03/28 05:16:29;;;;;;;23.17;7.50;;;;;;;5.18;76.39;102445.13;5026399;28;20349;-63
2022/03/28 05:18:54;;;;;;;25.80;7.20;;;;;;;5.18;76.51;102439.88;5026679;28;20484;-63
2022/03/28 05:21:19;;;;;;;27.47;6.67;;;;;;;5.13;76.52;102441.09;5021290;28;20547;-63
2022/03/28 05:23:46;;;;;;;25.77;6.83;;;;;;;5.04;76.36;102433.78;5023842;28;20030;-63
2022/03/28 05:26:11;;;;;;;23.53;6.07;;;;;;;5.00;76.18;102433.13;5018605;28;20026;-63
2022/03/28 05:28:36;;;;;;;22.80;6.53;;;;;;;4.98;76.32;102435.88;5017857;28;20041;-63
2022/03/28 05:31:01;;;;;;;26.47;6.40;;;;;;;4.91;76.43;102431.06;5023371;28;20067;-63
2022/03/28 05:33:27;;;;;;;16.03;5.77;;;;;;;4.83;76.21;102436.81;5022978;28;20041;-63
2022/03/28 05:35:54;;;;;;;14.70;5.13;;;;;;;4.75;76.12;102431.16;5029660;28;20491;-63
2022/03/28 05:38:19;;;;;;;19.63;5.53;;;;;;;4.75;76.38;102432.94;5021868;28;20076;-63
2022/03/28 05:40:45;;;;;;;19.57;6.00;;;;;;;4.76;76.66;102430.22;5040440;28;20560;-63
2022/03/28 05:43:10;;;;;;;19.40;5.93;;;;;;;4.72;76.77;102434.00;5019829;28;20025;-63
2022/03/28 05:45:36;;;;;;;23.03;6.37;;;;;;;4.69;76.88;102433.34;5029793;28;20033;-63
2022/03/28 05:48:02;;;;;;;16.43;5.43;;;;;;;4.64;77.09;102433.63;5029675;28;20480;-63
2022/03/28 05:50:27;;;;;;;13.77;5.70;;;;;;;4.68;77.48;102442.16;5029642;28;20076;-63
2022/03/28 05:52:52;;;;;;;17.67;6.47;;;;;;;4.65;77.90;102438.78;5029272;28;20033;-63
2022/03/28 05:55:17;;;;;;;18.40;6.90;;;;;;;4.65;78.13;102433.53;5021779;28;20063;-63
2022/03/28 05:57:43;;;;;;;14.47;5.97;;;;;;;4.63;78.22;102427.50;5020040;28;20044;-63
2022/03/28 06:00:10;;;;;;;18.57;6.37;;;;;;;4.63;78.45;102430.16;5020111;28;20067;-63
2022/03/28 06:02:36;;;;;;;10.10;5.23;;;;;;;4.61;78.46;102425.88;5024129;28;20765;-63
2022/03/28 06:05:02;;;;;;;13.27;5.10;;;;;;;4.69;78.61;102423.66;5019265;28;20041;-63
2022/03/28 06:07:28;;;;;;;18.83;6.73;;;;;;;4.82;79.37;102408.78;5017911;28;20037;-63
2022/03/28 06:09:53;;;;;;;18.10;6.87;;;;;;;5.01;79.57;102413.78;5018017;28;20041;-63
2022/03/28 06:12:18;;;;;;;17.80;6.50;;;;;;;5.13;79.69;102412.97;5026856;28;20051;-63
2022/03/28 06:14:43;;;;;;;21.77;7.40;;;;;;;5.28;79.74;102417.28;5027218;28;20116;-63
2022/03/28 06:17:10;;;;;;;33.87;8.33;;;;;;;5.48;79.84;102420.44;5022272;28;20296;-63
2022/03/28 06:19:35;;;;;;;35.40;7.90;;;;;;;5.62;79.86;102419.56;5021921;28;20176;-63
2022/03/28 06:22:00;;;;;;;32.23;8.47;;;;;;;5.79;80.06;102414.03;5020359;28;20381;-63
2022/03/28 06:24:26;;;;;;;34.83;8.53;;;;;;;5.87;80.06;102415.22;5028412;28;20040;-63
2022/03/28 06:26:51;;;;;;;39.53;6.80;;;;;;;6.00;79.70;102423.16;5022368;28;20075;-64
2022/03/28 06:29:16;;;;;;;33.30;8.07;;;;;;;6.15;79.54;102413.41;5023871;28;20288;-63
2022/03/28 06:31:41;;;;;;;32.57;8.80;;;;;;;6.32;79.38;102410.44;5029063;28;20453;-63
2022/03/28 06:34:07;;;;;;;23.30;7.47;;;;;;;6.46;79.40;102409.53;5014474;28;20240;-63
2022/03/28 06:36:33;;;;;;;29.20;8.33;;;;;;;6.59;79.43;102407.72;5029152;28;20032;-63
2022/03/28 06:39:00;;;;;;;28.90;8.40;;;;;;;6.71;79.36;102404.25;5027647;28;20029;-63
2022/03/28 06:41:25;;;;;;;30.87;8.80;;;;;;;6.86;79.27;102410.22;5016870;28;20026;-63
2022/03/28 06:43:51;;;;;;;37.23;9.83;;;;;;;7.04;79.43;102405.47;5028477;28;20056;-63
2022/03/28 06:46:16;;;;;;;33.77;9.33;;;;;;;7.12;79.14;102406.59;5028631;28;20400;-63
2022/03/28 06:48:42;;;;;;;33.30;9.40;;;;;;;7.24;78.95;102410.16;5022631;28;20049;-63
2022/03/28 06:51:07;;;;;;;34.57;9.30;;;;;;;7.45;78.90;102421.81;5029047;28;20199;-63
2022/03/28 06:53:33;;;;;;;32.97;9.47;;;;;;;7.60;78.62;102416.38;5028764;28;20025;-63
2022/03/28 06:55:58;;;;;;;32.93;9.53;;;;;;;7.74;78.35;102410.91;5028941;28;20079;-63
2022/03/28 06:58:24;;;;;;;30.83;8.43;;;;;;;7.83;77.95;102414.69;5022301;28;20117;-64
2022/03/28 07:00:50;;;;;;;32.23;9.67;;;;;;;7.92;77.34;102411.34;5028582;28;20101;-63
2022/03/28 07:03:16;;;;;;;28.97;9.50;;;;;;;8.01;77.20;102418.56;5028388;28;20120;-63
2022/03/28 07:05:41;;;;;;;35.63;9.77;;;;;;;8.06;76.83;102406.69;5027782;28;20100;-64
2022/03/28 07:08:07;;;;;;;37.20;9.87;;;;;;;8.21;76.51;102412.63;5023024;28;20030;-63
2022/03/28 07:10:32;;;;;;;35.38;9.75;;;;;;;8.36;76.10;102406.19;5025658;28;20048;-63
2022/03/28 07:12:58;;;;;;;32.55;9.55;;;;;;;8.49;76.15;102397.31;5028596;28;20114;-63
2022/03/28 07:15:23;;;;;;;36.83;9.77;;;;;;;8.63;75.43;102397.91;5028254;28;20377;-64
2022/03/28 07:17:57;;;;;;;33.38;9.40;;;;;;;8.65;75.01;102395.16;5028664;28;20083;-64
2022/03/28 07:20:26;;;;;;;39.92;9.70;;;;;;;8.66;75.06;102395.03;5025117;28;20064;-64
2022/03/28 07:22:52;;;;;;;32.20;9.43;;;;;;;8.71;74.92;102394.69;5026315;28;20052;-64
2022/03/28 07:25:19;;;;;;;35.92;9.70;;;;;;;8.82;74.95;102388.53;5020038;28;20032;-63
2022/03/28 07:27:44;;;;;;;34.47;9.95;;;;;;;8.91;74.42;102391.28;5030336;28;20112;-63
2022/03/28 07:30:11;;;;;;;32.28;9.27;;;;;;;8.88;74.15;102391.53;5021768;28;20113;-63
2022/03/28 07:32:37;;;;;;;43.05;10.40;;;;;;;9.12;74.45;102391.41;5027549;28;20106;-64
2022/03/28 07:35:03;;;;;;;30.48;10.20;;;;;;;9.38;73.87;102391.09;5028241;28;20064;-64
2022/03/28 07:37:28;;;;;;;38.05;10.18;;;;;;;9.53;73.52;102387.19;5026653;28;20126;-63
2022/03/28 07:39:54;;;;;;;28.40;9.82;;;;;;;9.72;73.28;102384.72;5026781;28;20607;-64
2022/03/28 07:42:19;;;;;;;29.27;10.20;;;;;;;9.80;72.81;102378.75;5027137;28;20291;-64
2022/03/28 07:44:44;;;;;;;34.50;10.55;;;;;;;9.72;72.33;102382.06;5018545;28;20104;-64
2022/03/28 07:47:10;;;;;;;34.15;11.30;;;;;;;9.81;72.51;102380.44;5027802;28;20108;-64
2022/03/28 07:49:36;;;;;;;34.70;11.55;;;;;;;9.81;71.95;102369.84;5027118;28;20040;-64
2022/03/28 07:52:03;;;;;;;39.90;12.13;;;;;;;10.02;72.22;102370.69;5027788;28;20037;-63
2022/03/28 07:54:29;;;;;;;35.35;11.23;;;;;;;10.00;72.10;102374.44;5025989;28;20040;-64
2022/03/28 07:56:54;;;;;;;38.38;13.35;;;;;;;10.13;71.71;102361.84;5027187;28;20029;-64
2022/03/28 07:59:21;;;;;;;36.95;12.60;;;;;;;10.53;71.75;102370.75;5023671;28;20348;-64
2022/03/28 08:01:46;;;;;;;29.05;12.20;;;;;;;10.62;70.99;102366.44;5026919;28;20428;-63
2022/03/28 08:04:12;;;;;;;36.88;13.80;;;;;;;10.59;70.63;102356.09;5027774;28;20072;-65
2022/03/28 08:06:38;;;;;;;32.90;12.70;;;;;;;10.54;70.28;102355.66;5026626;28;20030;-64
2022/03/28 08:09:04;;;;;;;36.25;12.13;;;;;;;10.74;70.79;102354.75;5013456;28;20477;-64
2022/03/28 08:11:30;;;;;;;27.33;11.13;;;;;;;10.93;70.56;102350.47;5020720;28;20044;-64
2022/03/28 08:13:56;;;;;;;40.28;14.90;;;;;;;11.08;69.85;102346.47;5027049;28;20091;-64
2022/03/28 08:16:21;;;;;;;36.58;13.40;;;;;;;11.28;69.68;102348.19;5027919;28;20033;-64
2022/03/28 08:18:46;;;;;;;40.38;13.43;;;;;;;11.29;69.17;102347.19;5025198;28;20389;-64
2022/03/28 08:21:12;;;;;;;37.78;13.80;;;;;;;10.96;68.38;102347.53;5027475;28;20052;-64
2022/03/28 08:23:37;;;;;;;41.13;13.57;;;;;;;10.90;68.42;102348.09;5022728;28;20040;-64
2022/03/28 08:26:04;;;;;;;39.47;14.15;;;;;;;11.09;68.88;102338.34;5020433;28;20025;-64
2022/03/28 08:28:29;;;;;;;38.83;14.48;;;;;;;11.25;69.00;102344.94;5025941;28;20033;-64
2022/03/28 08:30:54;;;;;;;37.30;14.93;;;;;;;11.25;68.77;102342.28;5027301;28;20025;-63
2022/03/28 08:33:19;;;;;;;35.42;15.23;;;;;;;11.25;68.39;102342.28;5014971;28;20205;-64
2022/03/28 08:35:45;;;;;;;37.30;15.02;;;;;;;11.37;68.84;102341.19;5020064;28;20033;-64
2022/03/28 08:38:10;;;;;;;33.90;13.80;;;;;;;11.62;68.80;102334.47;5026372;28;20428;-64
2022/03/28 08:40:36;;;;;;;38.00;14.35;;;;;;;11.79;68.47;102336.44;5026709;28;20038;-64
2022/03/28 08:43:03;;;;;;;40.50;15.88;;;;;;;11.98;67.81;102330.25;5026982;28;20564;-64
2022/03/28 08:45:28;;;;;;;36.90;14.57;;;;;;;11.92;67.60;102331.66;5026934;28;20025;-64
2022/03/28 08:47:55;;;;;;;36.85;14.35;;;;;;;12.10;67.23;102327.25;5023584;28;20511;-64
2022/03/28 08:50:20;;;;;;;30.13;14.93;;;;;;;12.29;66.90;102329.03;5025958;28;20473;-64
2022/03/28 08:52:46;;;;;;;44.75;15.43;;;;;;;12.36;66.95;102324.81;5027358;28;20144;-64
2022/03/28 08:55:13;;;;;;;42.22;14.50;;;;;;;12.39;66.08;102331.66;5026818;28;20075;-64
2022/03/28 08:57:38;;;;;;;34.95;15.15;;;;;;;12.23;65.71;102332.28;5023392;28;20084;-64
2022/03/28 09:00:06;;;;;;;43.00;16.23;;;;;;;12.35;65.96;102328.47;5022227;28;20029;-64
2022/03/28 09:02:45;;;;;;;42.10;15.25;;;;;;;12.47;65.52;102334.47;5027035;28;20029;-65
2022/03/28 09:05:18;;;;;;;36.97;15.68;;;;;;;12.65;65.39;102334.50;5014559;28;20048;-64
2022/03/28 09:07:44;;;;;;;37.90;16.60;;;;;;;12.86;65.44;102331.59;5025929;28;20025;-64
2022/03/28 09:10:15;;;;;;;38.95;15.77;;;;;;;13.07;64.87;102328.69;5023189;28;20067;-64
2022/03/28 09:13:05;;;;;;;36.45;16.67;;;;;;;13.07;64.02;102332.19;5018659;28;20038;-64
2022/03/28 09:15:45;;;;;;;43.33;17.10;;;;;;;13.27;63.42;102325.75;5012133;28;20108;-64
2022/03/28 09:18:36;;;;;;;39.72;17.30;;;;;;;13.34;63.16;102320.66;5024477;28;20038;-64
2022/03/28 09:21:16;;;;;;;40.72;16.50;;;;;;;13.52;63.06;102323.31;5018483;28;20038;-64
2022/03/28 09:23:48;;;;;;;38.35;16.83;;;;;;;13.61;62.55;102314.38;5027033;28;20406;-64
2022/03/28 09:26:23;;;;;;;37.97;17.52;;;;;;;13.67;62.64;102311.09;5016632;28;20077;-64
2022/03/28 09:29:03;;;;;;;44.40;19.17;;;;;;;13.87;61.91;102311.72;5015613;28;20087;-64
2022/03/28 09:31:37;;;;;;;45.72;19.35;;;;;;;13.88;61.86;102305.41;5026532;28;20104;-66
2022/03/28 09:34:13;;;;;;;40.90;19.63;;;;;;;14.02;61.46;102312.00;5020768;28;20105;-64
2022/03/28 09:36:53;;;;;;;40.70;19.00;;;;;;;14.26;61.19;102298.81;5014764;28;20087;-65
2022/03/28 09:39:22;;;;;;;40.13;18.35;;;;;;;14.39;60.29;102296.50;5018271;28;20483;-64
2022/03/28 09:42:03;;;;;;;39.65;19.23;;;;;;;14.63;60.16;102311.03;5026513;28;20050;-64
2022/03/28 09:44:38;;;;;;;53.10;19.45;;;;;;;14.81;60.33;102301.91;5026611;28;20060;-65
2022/03/28 09:47:09;;;;;;;40.30;18.80;;;;;;;15.03;59.38;102292.41;5026500;28;20479;-65
2022/03/28 09:49:35;;;;;;;44.63;19.30;;;;;;;15.18;58.94;102287.28;5018391;28;20048;-64
2022/03/28 09:52:08;;;;;;;47.22;20.23;;;;;;;15.26;58.12;102295.31;5029763;28;20029;-65
2022/03/28 09:54:51;;;;;;;42.70;18.70;;;;;;;15.56;58.35;102292.97;5030156;28;20036;-65
2022/03/28 09:57:25;;;;;;;46.40;19.58;;;;;;;15.70;57.55;102284.31;5029579;28;20057;-64
2022/03/28 09:59:53;;;;;;;45.13;18.23;;;;;;;15.69;57.04;102278.13;5026260;28;20200;-64
2022/03/28 10:02:23;;;;;;;38.72;18.45;;;;;;;15.95;56.98;102285.13;5030083;28;20017;-65
2022/03/28 10:04:52;;;;;;;38.97;17.40;;;;;;;16.09;56.32;102287.06;5029963;28;20032;-64
2022/03/28 10:07:20;;;;;;;39.30;17.17;;;;;;;16.20;55.89;102276.00;5029573;28;20043;-64
2022/03/28 10:09:46;;;;;;;43.13;18.42;;;;;;;16.27;55.48;102271.63;5028994;28;20492;-65
2022/03/28 10:12:12;;;;;;;35.38;17.73;;;;;;;16.43;55.27;102273.38;5025080;28;20018;-65
2022/03/28 10:14:37;;;;;;;36.10;18.08;;;;;;;16.68;54.30;102271.47;5011496;28;20036;-64
2022/03/28 10:17:05;;;;;;;34.90;17.63;;;;;;;16.85;53.24;102273.06;5027591;28;20029;-65
2022/03/28 10:19:33;;;;;;;37.17;17.90;;;;;;;16.84;53.65;102270.56;5017747;28;20026;-65
2022/03/28 10:22:01;;;;;;;37.00;17.38;;;;;;;16.73;52.97;102266.41;5028297;28;20021;-65
2022/03/28 10:24:29;;;;;;;37.40;17.07;;;;;;;16.43;52.79;102263.50;5026035;28;20108;-65
2022/03/28 10:26:57;;;;;;;36.33;17.13;;;;;;;16.28;52.79;102265.25;5015598;28;20029;-64
2022/03/28 10:29:23;;;;;;;36.27;16.70;;;;;;;16.44;53.14;102258.97;5028164;28;20465;-64
2022/03/28 10:32:02;;;;;;;36.42;16.65;;;;;;;16.48;52.98;102257.63;5029368;28;20533;-65
2022/03/28 10:34:42;;;;;;;36.28;17.75;;;;;;;16.23;52.06;102250.69;5028800;28;20029;-65
2022/03/28 10:37:31;;;;;;;36.33;19.55;;;;;;;16.26;52.87;102245.81;5027633;28;20048;-65
2022/03/28 10:40:19;;;;;;;34.63;17.02;;;;;;;16.49;53.18;102242.38;5028669;28;20118;-65
2022/03/28 10:42:46;;;;;;;32.83;16.92;;;;;;;16.41;52.67;102230.66;5028707;28;20030;-64
2022/03/28 10:45:18;;;;;;;34.72;18.83;;;;;;;16.51;52.70;102229.63;5027331;28;20531;-65
2022/03/28 10:47:45;;;;;;;36.83;16.83;;;;;;;16.76;52.64;102235.69;5020738;28;20033;-64
2022/03/28 10:50:12;;;;;;;35.53;18.13;;;;;;;17.07;52.08;102233.00;5027834;28;20504;-65
2022/03/28 10:52:38;;;;;;;34.50;17.88;;;;;;;17.30;52.14;102231.94;5029096;28;20477;-65
2022/03/28 10:55:08;;;;;;;34.40;18.88;;;;;;;17.41;51.72;102229.88;5028889;28;20028;-65
2022/03/28 10:57:35;;;;;;;35.55;19.40;;;;;;;17.44;51.50;102222.28;5026872;28;20030;-65
2022/03/28 11:00:12;;;;;;;35.22;18.75;;;;;;;17.32;50.84;102224.53;5026940;28;20029;-65
2022/03/28 11:02:37;;;;;;;36.60;18.50;;;;;;;17.22;50.33;102217.75;5028336;28;20473;-65
2022/03/28 11:05:14;;;;;;;37.80;18.15;;;;;;;17.14;50.13;102223.22;5028695;28;20013;-64
2022/03/28 11:07:39;;;;;;;37.33;18.60;;;;;;;17.31;50.41;102212.13;5022317;28;20028;-65
2022/03/28 11:10:08;;;;;;;39.95;18.90;;;;;;;17.37;50.44;102205.22;5021116;28;20021;-65
2022/03/28 11:12:34;;;;;;;34.65;18.42;;;;;;;17.46;50.27;102208.66;5024196;28;20034;-65
2022/03/28 11:15:13;;;;;;;36.60;18.70;;;;;;;17.44;50.02;102203.47;5015311;28;20056;-65
2022/03/28 11:17:54;;;;;;;33.13;18.10;;;;;;;17.54;49.62;102204.03;5028733;28;20049;-65